sensor_id;sensor_type;location;lat;lon;timestamp;P1;durP1;ratioP1;P2;durP2;ratioP2
4601;SDS011;2313;48.552;9.370;2023-02-15T00:00:02;53.53;;;20.63;;
4601;SDS011;2313;48.552;9.370;2023-02-15T00:02:28;32.80;;;18.40;;
4601;SDS011;2313;48.552;9.370;2023-02-15T00:04:54;36.90;;;19.40;;
4601;SDS011;2313;48.552;9.370;2023-02-15T00:07:21;38.30;;;19.52;;
4601;SDS011;2313;48.552;9.370;2023-02-15T00:09:46;33.60;;;18.60;;
4601;SDS011;2313;48.552;9.370;2023-02-15T00:12:13;36.20;;;17.97;;
4601;SDS011;2313;48.552;9.370;2023-02-15T00:14:39;34.00;;;18.27;;
4601;SDS011;2313;48.552;9.370;2023-02-15T00:17:05;33.23;;;18.63;;
4601;SDS011;2313;48.552;9.370;2023-02-15T00:19:30;34.57;;;19.20;;
4601;SDS011;2313;48.552;9.370;2023-02-15T00:21:56;33.90;;;18.23;;
4601;SDS011;2313;48.552;9.370;2023-02-15T00:24:22;38.90;;;19.10;;
4601;SDS011;2313;48.552;9.370;2023-02-15T00:26:48;37.37;;;19.70;;
4601;SDS011;2313;48.552;9.370;2023-02-15T00:29:14;28.90;;;17.58;;
4601;SDS011;2313;48.552;9.370;2023-02-15T00:31:41;33.97;;;19.98;;
4601;SDS011;2313;48.552;9.370;2023-02-15T00:34:11;34.67;;;18.83;;
4601;SDS011;2313;48.552;9.370;2023-02-15T00:36:38;39.90;;;18.75;;
4601;SDS011;2313;48.552;9.370;2023-02-15T00:39:04;35.17;;;19.80;;
4601;SDS011;2313;48.552;9.370;2023-02-15T00:41:31;35.20;;;20.27;;
4601;SDS011;2313;48.552;9.370;2023-02-15T00:43:57;35.65;;;19.45;;
4601;SDS011;2313;48.552;9.370;2023-02-15T00:46:23;34.10;;;19.70;;
4601;SDS011;2313;48.552;9.370;2023-02-15T00:48:48;32.47;;;17.17;;
4601;SDS011;2313;48.552;9.370;2023-02-15T00:51:14;34.90;;;19.05;;
4601;SDS011;2313;48.552;9.370;2023-02-15T00:53:40;42.70;;;19.97;;
4601;SDS011;2313;48.552;9.370;2023-02-15T00:56:06;38.67;;;19.87;;
4601;SDS011;2313;48.552;9.370;2023-02-15T00:58:31;30.83;;;18.70;;
4601;SDS011;2313;48.552;9.370;2023-02-15T01:01:02;33.40;;;19.20;;
4601;SDS011;2313;48.552;9.370;2023-02-15T01:03:30;35.42;;;19.67;;
4601;SDS011;2313;48.552;9.370;2023-02-15T01:05:56;33.70;;;18.17;;
4601;SDS011;2313;48.552;9.370;2023-02-15T01:08:21;36.30;;;17.30;;
4601;SDS011;2313;48.552;9.370;2023-02-15T01:10:47;31.57;;;18.13;;
4601;SDS011;2313;48.552;9.370;2023-02-15T01:13:14;30.37;;;16.87;;
4601;SDS011;2313;48.552;9.370;2023-02-15T01:15:40;34.25;;;18.85;;
4601;SDS011;2313;48.552;9.370;2023-02-15T01:18:05;30.43;;;17.00;;
4601;SDS011;2313;48.552;9.370;2023-02-15T01:20:33;28.60;;;16.23;;
4601;SDS011;2313;48.552;9.370;2023-02-15T01:23:01;29.67;;;17.10;;
4601;SDS011;2313;48.552;9.370;2023-02-15T01:25:27;29.80;;;17.00;;
4601;SDS011;2313;48.552;9.370;2023-02-15T01:27:53;28.07;;;16.10;;
4601;SDS011;2313;48.552;9.370;2023-02-15T01:30:18;30.57;;;17.90;;
4601;SDS011;2313;48.552;9.370;2023-02-15T01:32:44;28.80;;;16.03;;
4601;SDS011;2313;48.552;9.370;2023-02-15T01:35:10;33.77;;;17.67;;
4601;SDS011;2313;48.552;9.370;2023-02-15T01:37:36;29.53;;;15.70;;
4601;SDS011;2313;48.552;9.370;2023-02-15T01:40:03;34.17;;;18.08;;
4601;SDS011;2313;48.552;9.370;2023-02-15T01:42:32;26.85;;;16.10;;
4601;SDS011;2313;48.552;9.370;2023-02-15T01:45:14;35.53;;;17.03;;
4601;SDS011;2313;48.552;9.370;2023-02-15T01:50:47;31.73;;;16.70;;
4601;SDS011;2313;48.552;9.370;2023-02-15T01:53:21;32.35;;;18.00;;
4601;SDS011;2313;48.552;9.370;2023-02-15T01:58:26;31.10;;;17.52;;
4601;SDS011;2313;48.552;9.370;2023-02-15T02:00:54;31.00;;;17.77;;
4601;SDS011;2313;48.552;9.370;2023-02-15T02:06:18;35.50;;;18.17;;
4601;SDS011;2313;48.552;9.370;2023-02-15T02:08:45;29.15;;;17.35;;
4601;SDS011;2313;48.552;9.370;2023-02-15T02:11:13;35.97;;;17.25;;
4601;SDS011;2313;48.552;9.370;2023-02-15T02:13:40;30.30;;;16.20;;
4601;SDS011;2313;48.552;9.370;2023-02-15T02:16:12;27.98;;;16.40;;
4601;SDS011;2313;48.552;9.370;2023-02-15T02:24:22;32.38;;;15.40;;
4601;SDS011;2313;48.552;9.370;2023-02-15T02:27:08;30.15;;;15.50;;
4601;SDS011;2313;48.552;9.370;2023-02-15T02:35:25;26.15;;;15.70;;
4601;SDS011;2313;48.552;9.370;2023-02-15T02:38:10;29.75;;;16.25;;
4601;SDS011;2313;48.552;9.370;2023-02-15T02:43:38;27.85;;;16.65;;
4601;SDS011;2313;48.552;9.370;2023-02-15T02:46:34;22.30;;;12.93;;
4601;SDS011;2313;48.552;9.370;2023-02-15T02:49:07;22.48;;;13.25;;
4601;SDS011;2313;48.552;9.370;2023-02-15T02:51:32;26.17;;;14.80;;
4601;SDS011;2313;48.552;9.370;2023-02-15T02:53:59;27.20;;;14.37;;
4601;SDS011;2313;48.552;9.370;2023-02-15T02:56:41;29.05;;;15.60;;
4601;SDS011;2313;48.552;9.370;2023-02-15T03:02:13;27.60;;;16.30;;
4601;SDS011;2313;48.552;9.370;2023-02-15T03:04:45;28.00;;;16.70;;
4601;SDS011;2313;48.552;9.370;2023-02-15T03:07:23;28.60;;;15.20;;
4601;SDS011;2313;48.552;9.370;2023-02-15T03:09:52;24.25;;;14.63;;
4601;SDS011;2313;48.552;9.370;2023-02-15T03:12:41;25.45;;;13.25;;
4601;SDS011;2313;48.552;9.370;2023-02-15T03:15:06;31.17;;;13.15;;
4601;SDS011;2313;48.552;9.370;2023-02-15T03:17:46;25.92;;;14.50;;
4601;SDS011;2313;48.552;9.370;2023-02-15T03:20:28;29.73;;;16.02;;
4601;SDS011;2313;48.552;9.370;2023-02-15T03:22:59;34.40;;;16.75;;
4601;SDS011;2313;48.552;9.370;2023-02-15T03:25:34;35.28;;;17.08;;
4601;SDS011;2313;48.552;9.370;2023-02-15T03:28:09;28.55;;;16.13;;
4601;SDS011;2313;48.552;9.370;2023-02-15T03:30:44;31.55;;;15.77;;
4601;SDS011;2313;48.552;9.370;2023-02-15T03:33:13;31.10;;;15.70;;
4601;SDS011;2313;48.552;9.370;2023-02-15T03:35:51;31.45;;;14.93;;
4601;SDS011;2313;48.552;9.370;2023-02-15T03:38:43;27.85;;;14.98;;
4601;SDS011;2313;48.552;9.370;2023-02-15T03:41:15;31.27;;;15.05;;
4601;SDS011;2313;48.552;9.370;2023-02-15T03:46:13;28.60;;;14.33;;
4601;SDS011;2313;48.552;9.370;2023-02-15T03:48:49;27.98;;;13.75;;
4601;SDS011;2313;48.552;9.370;2023-02-15T03:51:18;25.60;;;15.27;;
4601;SDS011;2313;48.552;9.370;2023-02-15T03:54:44;27.25;;;14.43;;
4601;SDS011;2313;48.552;9.370;2023-02-15T04:00:19;22.48;;;13.48;;
4601;SDS011;2313;48.552;9.370;2023-02-15T04:05:41;23.70;;;11.75;;
4601;SDS011;2313;48.552;9.370;2023-02-15T04:08:08;24.45;;;13.00;;
4601;SDS011;2313;48.552;9.370;2023-02-15T04:10:34;23.63;;;13.27;;
4601;SDS011;2313;48.552;9.370;2023-02-15T04:13:20;34.90;;;14.73;;
4601;SDS011;2313;48.552;9.370;2023-02-15T04:15:47;26.08;;;13.73;;
4601;SDS011;2313;48.552;9.370;2023-02-15T04:18:28;25.92;;;14.77;;
4601;SDS011;2313;48.552;9.370;2023-02-15T04:21:30;25.63;;;14.32;;
4601;SDS011;2313;48.552;9.370;2023-02-15T04:24:14;24.90;;;12.95;;
4601;SDS011;2313;48.552;9.370;2023-02-15T04:26:59;24.10;;;11.98;;
4601;SDS011;2313;48.552;9.370;2023-02-15T04:29:26;22.02;;;12.63;;
4601;SDS011;2313;48.552;9.370;2023-02-15T04:31:53;27.67;;;14.45;;
4601;SDS011;2313;48.552;9.370;2023-02-15T04:34:20;30.20;;;13.93;;
4601;SDS011;2313;48.552;9.370;2023-02-15T04:36:46;28.00;;;14.57;;
4601;SDS011;2313;48.552;9.370;2023-02-15T04:39:12;27.70;;;13.00;;
4601;SDS011;2313;48.552;9.370;2023-02-15T04:41:38;25.23;;;12.13;;
4601;SDS011;2313;48.552;9.370;2023-02-15T04:44:04;23.37;;;13.47;;
4601;SDS011;2313;48.552;9.370;2023-02-15T04:46:30;24.43;;;13.63;;
4601;SDS011;2313;48.552;9.370;2023-02-15T04:48:56;29.42;;;14.27;;
4601;SDS011;2313;48.552;9.370;2023-02-15T04:51:25;24.67;;;12.80;;
4601;SDS011;2313;48.552;9.370;2023-02-15T04:53:51;22.30;;;13.20;;
4601;SDS011;2313;48.552;9.370;2023-02-15T04:56:19;23.95;;;13.20;;
4601;SDS011;2313;48.552;9.370;2023-02-15T04:58:46;24.05;;;13.60;;
4601;SDS011;2313;48.552;9.370;2023-02-15T05:01:11;27.30;;;16.13;;
4601;SDS011;2313;48.552;9.370;2023-02-15T05:03:37;25.87;;;14.37;;
4601;SDS011;2313;48.552;9.370;2023-02-15T05:06:03;29.63;;;16.20;;
4601;SDS011;2313;48.552;9.370;2023-02-15T05:08:30;24.48;;;14.63;;
4601;SDS011;2313;48.552;9.370;2023-02-15T05:10:56;25.00;;;13.50;;
4601;SDS011;2313;48.552;9.370;2023-02-15T05:13:22;23.77;;;13.35;;
4601;SDS011;2313;48.552;9.370;2023-02-15T05:15:48;23.38;;;14.43;;
4601;SDS011;2313;48.552;9.370;2023-02-15T05:18:15;27.05;;;15.13;;
4601;SDS011;2313;48.552;9.370;2023-02-15T05:20:42;25.02;;;14.13;;
4601;SDS011;2313;48.552;9.370;2023-02-15T05:23:07;26.33;;;14.13;;
4601;SDS011;2313;48.552;9.370;2023-02-15T05:25:36;24.30;;;14.05;;
4601;SDS011;2313;48.552;9.370;2023-02-15T05:28:21;32.00;;;15.48;;
4601;SDS011;2313;48.552;9.370;2023-02-15T05:30:49;28.65;;;15.63;;
4601;SDS011;2313;48.552;9.370;2023-02-15T05:33:16;27.23;;;14.43;;
4601;SDS011;2313;48.552;9.370;2023-02-15T05:35:42;30.38;;;14.45;;
4601;SDS011;2313;48.552;9.370;2023-02-15T05:38:08;33.27;;;15.33;;
4601;SDS011;2313;48.552;9.370;2023-02-15T05:40:34;26.23;;;13.40;;
4601;SDS011;2313;48.552;9.370;2023-02-15T05:42:59;24.13;;;13.43;;
4601;SDS011;2313;48.552;9.370;2023-02-15T05:45:25;30.50;;;15.40;;
4601;SDS011;2313;48.552;9.370;2023-02-15T05:47:51;24.10;;;13.87;;
4601;SDS011;2313;48.552;9.370;2023-02-15T05:50:18;23.77;;;14.40;;
4601;SDS011;2313;48.552;9.370;2023-02-15T05:52:43;29.50;;;15.13;;
4601;SDS011;2313;48.552;9.370;2023-02-15T05:55:09;25.93;;;14.93;;
4601;SDS011;2313;48.552;9.370;2023-02-15T05:57:35;27.50;;;15.73;;
4601;SDS011;2313;48.552;9.370;2023-02-15T06:00:04;32.60;;;14.40;;
4601;SDS011;2313;48.552;9.370;2023-02-15T06:02:33;29.20;;;14.93;;
4601;SDS011;2313;48.552;9.370;2023-02-15T06:04:59;25.90;;;14.40;;
4601;SDS011;2313;48.552;9.370;2023-02-15T06:07:25;27.77;;;14.67;;
4601;SDS011;2313;48.552;9.370;2023-02-15T06:09:50;26.50;;;14.00;;
4601;SDS011;2313;48.552;9.370;2023-02-15T06:12:16;32.27;;;15.50;;
4601;SDS011;2313;48.552;9.370;2023-02-15T06:14:42;34.47;;;17.67;;
4601;SDS011;2313;48.552;9.370;2023-02-15T06:17:07;32.00;;;17.33;;
4601;SDS011;2313;48.552;9.370;2023-02-15T06:19:33;26.70;;;16.97;;
4601;SDS011;2313;48.552;9.370;2023-02-15T06:21:58;29.63;;;17.33;;
4601;SDS011;2313;48.552;9.370;2023-02-15T06:24:24;28.40;;;16.03;;
4601;SDS011;2313;48.552;9.370;2023-02-15T06:26:50;27.13;;;14.53;;
4601;SDS011;2313;48.552;9.370;2023-02-15T06:29:15;23.57;;;13.50;;
4601;SDS011;2313;48.552;9.370;2023-02-15T06:31:41;30.17;;;14.70;;
4601;SDS011;2313;48.552;9.370;2023-02-15T06:34:07;26.60;;;14.83;;
4601;SDS011;2313;48.552;9.370;2023-02-15T06:36:32;25.37;;;14.97;;
4601;SDS011;2313;48.552;9.370;2023-02-15T06:38:58;26.90;;;15.80;;
4601;SDS011;2313;48.552;9.370;2023-02-15T06:41:24;37.23;;;16.57;;
4601;SDS011;2313;48.552;9.370;2023-02-15T06:43:49;31.43;;;17.53;;
4601;SDS011;2313;48.552;9.370;2023-02-15T06:46:15;31.30;;;14.23;;
4601;SDS011;2313;48.552;9.370;2023-02-15T06:48:41;26.83;;;14.40;;
4601;SDS011;2313;48.552;9.370;2023-02-15T06:51:07;28.63;;;15.20;;
4601;SDS011;2313;48.552;9.370;2023-02-15T06:53:32;40.07;;;18.33;;
4601;SDS011;2313;48.552;9.370;2023-02-15T06:56:01;40.40;;;18.03;;
4601;SDS011;2313;48.552;9.370;2023-02-15T06:58:31;125.28;;;22.98;;
4601;SDS011;2313;48.552;9.370;2023-02-15T07:01:15;173.10;;;22.65;;
4601;SDS011;2313;48.552;9.370;2023-02-15T07:03:40;208.20;;;26.73;;
4601;SDS011;2313;48.552;9.370;2023-02-15T07:06:06;253.70;;;26.13;;
4601;SDS011;2313;48.552;9.370;2023-02-15T07:08:33;98.88;;;23.05;;
4601;SDS011;2313;48.552;9.370;2023-02-15T07:11:00;75.05;;;23.23;;
4601;SDS011;2313;48.552;9.370;2023-02-15T07:13:45;49.25;;;21.45;;
4601;SDS011;2313;48.552;9.370;2023-02-15T07:16:11;52.92;;;22.25;;
4601;SDS011;2313;48.552;9.370;2023-02-15T07:18:38;47.00;;;18.70;;
4601;SDS011;2313;48.552;9.370;2023-02-15T07:21:04;41.30;;;18.25;;
4601;SDS011;2313;48.552;9.370;2023-02-15T07:23:32;107.03;;;20.80;;
4601;SDS011;2313;48.552;9.370;2023-02-15T07:26:00;40.55;;;17.45;;
4601;SDS011;2313;48.552;9.370;2023-02-15T07:28:26;34.58;;;17.75;;
4601;SDS011;2313;48.552;9.370;2023-02-15T07:30:52;40.80;;;19.43;;
4601;SDS011;2313;48.552;9.370;2023-02-15T07:33:18;35.63;;;18.17;;
4601;SDS011;2313;48.552;9.370;2023-02-15T07:35:50;42.08;;;19.80;;
4601;SDS011;2313;48.552;9.370;2023-02-15T07:38:16;41.08;;;18.73;;
4601;SDS011;2313;48.552;9.370;2023-02-15T07:40:43;43.10;;;18.45;;
4601;SDS011;2313;48.552;9.370;2023-02-15T07:43:09;38.00;;;19.50;;
4601;SDS011;2313;48.552;9.370;2023-02-15T07:45:35;40.95;;;18.42;;
4601;SDS011;2313;48.552;9.370;2023-02-15T07:48:01;40.17;;;17.50;;
4601;SDS011;2313;48.552;9.370;2023-02-15T07:50:28;31.13;;;16.35;;
4601;SDS011;2313;48.552;9.370;2023-02-15T07:52:53;26.50;;;16.00;;
4601;SDS011;2313;48.552;9.370;2023-02-15T07:55:19;30.43;;;14.57;;
4601;SDS011;2313;48.552;9.370;2023-02-15T07:57:45;19.40;;;13.37;;
4601;SDS011;2313;48.552;9.370;2023-02-15T08:00:12;26.10;;;16.38;;
4601;SDS011;2313;48.552;9.370;2023-02-15T08:02:39;24.83;;;15.43;;
4601;SDS011;2313;48.552;9.370;2023-02-15T08:05:05;27.70;;;18.97;;
4601;SDS011;2313;48.552;9.370;2023-02-15T08:07:31;26.20;;;17.05;;
4601;SDS011;2313;48.552;9.370;2023-02-15T08:09:57;29.43;;;16.93;;
4601;SDS011;2313;48.552;9.370;2023-02-15T08:12:25;44.93;;;27.33;;
4601;SDS011;2313;48.552;9.370;2023-02-15T08:14:51;34.30;;;24.23;;
4601;SDS011;2313;48.552;9.370;2023-02-15T08:17:16;32.40;;;21.43;;
4601;SDS011;2313;48.552;9.370;2023-02-15T08:19:43;36.30;;;22.57;;
4601;SDS011;2313;48.552;9.370;2023-02-15T08:22:10;40.53;;;25.07;;
4601;SDS011;2313;48.552;9.370;2023-02-15T08:24:38;43.43;;;27.30;;
4601;SDS011;2313;48.552;9.370;2023-02-15T08:27:05;38.60;;;23.20;;
4601;SDS011;2313;48.552;9.370;2023-02-15T08:29:33;38.13;;;24.00;;
4601;SDS011;2313;48.552;9.370;2023-02-15T08:32:00;46.60;;;26.90;;
4601;SDS011;2313;48.552;9.370;2023-02-15T08:34:29;56.53;;;31.63;;
4601;SDS011;2313;48.552;9.370;2023-02-15T08:36:56;46.50;;;27.93;;
4601;SDS011;2313;48.552;9.370;2023-02-15T08:39:22;44.50;;;27.50;;
4601;SDS011;2313;48.552;9.370;2023-02-15T08:41:48;49.90;;;29.67;;
4601;SDS011;2313;48.552;9.370;2023-02-15T08:44:14;57.70;;;35.50;;
4601;SDS011;2313;48.552;9.370;2023-02-15T08:46:42;55.27;;;38.10;;
4601;SDS011;2313;48.552;9.370;2023-02-15T08:49:09;51.77;;;34.83;;
4601;SDS011;2313;48.552;9.370;2023-02-15T08:51:38;55.47;;;34.57;;
4601;SDS011;2313;48.552;9.370;2023-02-15T08:54:08;46.97;;;29.93;;
4601;SDS011;2313;48.552;9.370;2023-02-15T08:56:36;45.17;;;28.80;;
4601;SDS011;2313;48.552;9.370;2023-02-15T08:59:04;36.30;;;23.33;;
4601;SDS011;2313;48.552;9.370;2023-02-15T09:01:31;36.77;;;24.87;;
4601;SDS011;2313;48.552;9.370;2023-02-15T09:04:00;33.63;;;23.43;;
4601;SDS011;2313;48.552;9.370;2023-02-15T09:06:29;29.87;;;20.40;;
4601;SDS011;2313;48.552;9.370;2023-02-15T09:08:54;31.33;;;20.93;;
4601;SDS011;2313;48.552;9.370;2023-02-15T09:11:22;30.90;;;20.20;;
4601;SDS011;2313;48.552;9.370;2023-02-15T09:16:18;40.10;;;25.00;;
4601;SDS011;2313;48.552;9.370;2023-02-15T09:18:45;33.53;;;21.57;;
4601;SDS011;2313;48.552;9.370;2023-02-15T09:21:15;33.87;;;23.53;;
4601;SDS011;2313;48.552;9.370;2023-02-15T09:23:43;28.93;;;21.00;;
4601;SDS011;2313;48.552;9.370;2023-02-15T09:26:15;30.73;;;22.20;;
4601;SDS011;2313;48.552;9.370;2023-02-15T09:28:42;28.40;;;21.27;;
4601;SDS011;2313;48.552;9.370;2023-02-15T09:31:08;32.40;;;23.73;;
4601;SDS011;2313;48.552;9.370;2023-02-15T09:33:38;33.23;;;23.43;;
4601;SDS011;2313;48.552;9.370;2023-02-15T09:36:05;31.17;;;20.87;;
4601;SDS011;2313;48.552;9.370;2023-02-15T09:38:38;31.40;;;19.93;;
4601;SDS011;2313;48.552;9.370;2023-02-15T09:41:11;29.10;;;19.57;;
4601;SDS011;2313;48.552;9.370;2023-02-15T09:43:56;26.13;;;19.43;;
4601;SDS011;2313;48.552;9.370;2023-02-15T09:46:48;30.17;;;19.50;;
4601;SDS011;2313;48.552;9.370;2023-02-15T09:49:25;23.73;;;19.20;;
4601;SDS011;2313;48.552;9.370;2023-02-15T09:57:36;25.43;;;18.77;;
4601;SDS011;2313;48.552;9.370;2023-02-15T10:06:11;24.53;;;18.80;;
4601;SDS011;2313;48.552;9.370;2023-02-15T10:14:27;27.07;;;20.33;;
4601;SDS011;2313;48.552;9.370;2023-02-15T10:17:25;27.17;;;20.13;;
4601;SDS011;2313;48.552;9.370;2023-02-15T10:28:28;33.03;;;21.67;;
4601;SDS011;2313;48.552;9.370;2023-02-15T10:34:37;26.37;;;19.00;;
4601;SDS011;2313;48.552;9.370;2023-02-15T10:42:16;27.13;;;20.53;;
4601;SDS011;2313;48.552;9.370;2023-02-15T10:50:48;32.73;;;21.60;;
4601;SDS011;2313;48.552;9.370;2023-02-15T11:08:03;22.13;;;18.50;;
4601;SDS011;2313;48.552;9.370;2023-02-15T11:13:09;25.30;;;19.00;;
4601;SDS011;2313;48.552;9.370;2023-02-15T11:15:53;25.60;;;19.97;;
4601;SDS011;2313;48.552;9.370;2023-02-15T11:21:01;24.40;;;19.20;;
4601;SDS011;2313;48.552;9.370;2023-02-15T11:23:47;23.97;;;19.20;;
4601;SDS011;2313;48.552;9.370;2023-02-15T11:26:15;23.97;;;19.43;;
4601;SDS011;2313;48.552;9.370;2023-02-15T11:28:48;24.00;;;19.10;;
4601;SDS011;2313;48.552;9.370;2023-02-15T11:31:19;25.27;;;19.70;;
4601;SDS011;2313;48.552;9.370;2023-02-15T11:34:00;26.50;;;19.00;;
4601;SDS011;2313;48.552;9.370;2023-02-15T11:36:35;28.80;;;18.83;;
4601;SDS011;2313;48.552;9.370;2023-02-15T11:39:08;25.93;;;19.17;;
4601;SDS011;2313;48.552;9.370;2023-02-15T11:41:39;24.47;;;17.73;;
4601;SDS011;2313;48.552;9.370;2023-02-15T11:44:16;23.07;;;18.10;;
4601;SDS011;2313;48.552;9.370;2023-02-15T11:46:48;22.00;;;18.10;;
4601;SDS011;2313;48.552;9.370;2023-02-15T11:49:21;30.97;;;19.10;;
4601;SDS011;2313;48.552;9.370;2023-02-15T11:51:47;27.73;;;19.27;;
4601;SDS011;2313;48.552;9.370;2023-02-15T11:54:15;23.83;;;18.63;;
4601;SDS011;2313;48.552;9.370;2023-02-15T11:56:44;26.20;;;17.17;;
4601;SDS011;2313;48.552;9.370;2023-02-15T11:59:11;23.80;;;17.50;;
4601;SDS011;2313;48.552;9.370;2023-02-15T12:01:45;22.70;;;17.50;;
4601;SDS011;2313;48.552;9.370;2023-02-15T12:12:25;22.30;;;16.87;;
4601;SDS011;2313;48.552;9.370;2023-02-15T12:15:14;20.17;;;16.67;;
4601;SDS011;2313;48.552;9.370;2023-02-15T12:17:40;25.93;;;17.60;;
4601;SDS011;2313;48.552;9.370;2023-02-15T12:22:39;25.13;;;18.10;;
4601;SDS011;2313;48.552;9.370;2023-02-15T12:25:21;22.93;;;16.57;;
4601;SDS011;2313;48.552;9.370;2023-02-15T12:28:15;20.50;;;16.03;;
4601;SDS011;2313;48.552;9.370;2023-02-15T12:30:56;21.10;;;15.77;;
4601;SDS011;2313;48.552;9.370;2023-02-15T12:33:31;26.03;;;16.80;;
4601;SDS011;2313;48.552;9.370;2023-02-15T12:36:29;28.10;;;17.03;;
4601;SDS011;2313;48.552;9.370;2023-02-15T12:41:37;27.83;;;17.53;;
4601;SDS011;2313;48.552;9.370;2023-02-15T12:49:33;26.53;;;17.10;;
4601;SDS011;2313;48.552;9.370;2023-02-15T12:52:01;22.43;;;16.60;;
4601;SDS011;2313;48.552;9.370;2023-02-15T12:54:47;20.37;;;14.43;;
4601;SDS011;2313;48.552;9.370;2023-02-15T13:00:01;23.40;;;14.10;;
4601;SDS011;2313;48.552;9.370;2023-02-15T13:02:35;28.03;;;15.97;;
4601;SDS011;2313;48.552;9.370;2023-02-15T13:05:28;25.40;;;16.10;;
4601;SDS011;2313;48.552;9.370;2023-02-15T13:08:01;20.03;;;13.67;;
4601;SDS011;2313;48.552;9.370;2023-02-15T13:10:39;21.97;;;13.27;;
4601;SDS011;2313;48.552;9.370;2023-02-15T13:13:14;18.47;;;12.47;;
4601;SDS011;2313;48.552;9.370;2023-02-15T13:15:51;26.33;;;13.70;;
4601;SDS011;2313;48.552;9.370;2023-02-15T13:18:31;23.60;;;13.87;;
4601;SDS011;2313;48.552;9.370;2023-02-15T13:23:43;14.40;;;10.87;;
4601;SDS011;2313;48.552;9.370;2023-02-15T13:26:17;17.63;;;11.93;;
4601;SDS011;2313;48.552;9.370;2023-02-15T13:28:47;18.07;;;11.67;;
4601;SDS011;2313;48.552;9.370;2023-02-15T13:31:20;13.20;;;10.00;;
4601;SDS011;2313;48.552;9.370;2023-02-15T13:33:50;13.03;;;10.37;;
4601;SDS011;2313;48.552;9.370;2023-02-15T13:36:29;14.50;;;11.60;;
4601;SDS011;2313;48.552;9.370;2023-02-15T13:41:47;13.20;;;9.93;;
4601;SDS011;2313;48.552;9.370;2023-02-15T13:44:31;15.47;;;11.77;;
4601;SDS011;2313;48.552;9.370;2023-02-15T14:19:53;15.90;;;9.90;;
4601;SDS011;2313;48.552;9.370;2023-02-15T14:30:20;12.23;;;8.57;;
4601;SDS011;2313;48.552;9.370;2023-02-15T14:32:51;12.43;;;9.00;;
4601;SDS011;2313;48.552;9.370;2023-02-15T14:35:24;12.50;;;9.30;;
4601;SDS011;2313;48.552;9.370;2023-02-15T14:41:04;13.10;;;7.93;;
4601;SDS011;2313;48.552;9.370;2023-02-15T14:56:41;12.63;;;8.23;;
4601;SDS011;2313;48.552;9.370;2023-02-15T14:59:19;14.60;;;9.87;;
4601;SDS011;2313;48.552;9.370;2023-02-15T15:01:51;12.20;;;8.30;;
4601;SDS011;2313;48.552;9.370;2023-02-15T15:05:06;13.23;;;8.00;;
4601;SDS011;2313;48.552;9.370;2023-02-15T15:07:22;13.23;;;8.57;;
4601;SDS011;2313;48.552;9.370;2023-02-15T15:09:58;10.10;;;6.30;;
4601;SDS011;2313;48.552;9.370;2023-02-15T15:12:40;6.03;;;4.17;;
4601;SDS011;2313;48.552;9.370;2023-02-15T15:15:47;8.43;;;5.20;;
4601;SDS011;2313;48.552;9.370;2023-02-15T15:18:10;8.93;;;5.20;;
4601;SDS011;2313;48.552;9.370;2023-02-15T15:20:55;12.53;;;5.40;;
4601;SDS011;2313;48.552;9.370;2023-02-15T15:25:48;11.53;;;6.27;;
4601;SDS011;2313;48.552;9.370;2023-02-15T15:31:19;9.73;;;5.20;;
4601;SDS011;2313;48.552;9.370;2023-02-15T15:50:27;8.60;;;4.40;;
4601;SDS011;2313;48.552;9.370;2023-02-15T15:52:54;5.30;;;3.40;;
4601;SDS011;2313;48.552;9.370;2023-02-15T15:55:23;8.57;;;3.67;;
4601;SDS011;2313;48.552;9.370;2023-02-15T15:57:56;5.13;;;3.60;;
4601;SDS011;2313;48.552;9.370;2023-02-15T16:03:16;4.90;;;3.63;;
4601;SDS011;2313;48.552;9.370;2023-02-15T16:05:49;5.67;;;3.80;;
4601;SDS011;2313;48.552;9.370;2023-02-15T16:08:52;6.23;;;3.47;;
4601;SDS011;2313;48.552;9.370;2023-02-15T16:11:21;6.90;;;4.40;;
4601;SDS011;2313;48.552;9.370;2023-02-15T16:13:52;8.00;;;4.10;;
4601;SDS011;2313;48.552;9.370;2023-02-15T16:16:22;11.27;;;5.13;;
4601;SDS011;2313;48.552;9.370;2023-02-15T16:18:50;5.13;;;4.10;;
4601;SDS011;2313;48.552;9.370;2023-02-15T16:21:18;5.47;;;4.33;;
4601;SDS011;2313;48.552;9.370;2023-02-15T16:28:58;15.13;;;5.10;;
4601;SDS011;2313;48.552;9.370;2023-02-15T16:31:23;8.93;;;5.07;;
4601;SDS011;2313;48.552;9.370;2023-02-15T16:33:51;13.40;;;5.47;;
4601;SDS011;2313;48.552;9.370;2023-02-15T16:36:23;7.07;;;5.23;;
4601;SDS011;2313;48.552;9.370;2023-02-15T16:41:17;6.77;;;4.83;;
4601;SDS011;2313;48.552;9.370;2023-02-15T16:43:48;7.87;;;5.80;;
4601;SDS011;2313;48.552;9.370;2023-02-15T16:46:24;7.60;;;5.37;;
4601;SDS011;2313;48.552;9.370;2023-02-15T16:48:50;8.33;;;5.20;;
4601;SDS011;2313;48.552;9.370;2023-02-15T16:51:18;9.20;;;4.80;;
4601;SDS011;2313;48.552;9.370;2023-02-15T16:53:47;9.07;;;5.37;;
4601;SDS011;2313;48.552;9.370;2023-02-15T16:56:13;27.63;;;5.80;;
4601;SDS011;2313;48.552;9.370;2023-02-15T16:58:49;12.50;;;9.00;;
4601;SDS011;2313;48.552;9.370;2023-02-15T17:01:16;25.40;;;20.87;;
4601;SDS011;2313;48.552;9.370;2023-02-15T17:03:48;15.03;;;9.80;;
4601;SDS011;2313;48.552;9.370;2023-02-15T17:06:19;8.13;;;6.63;;
4601;SDS011;2313;48.552;9.370;2023-02-15T17:08:51;4.77;;;4.10;;
4601;SDS011;2313;48.552;9.370;2023-02-15T17:11:21;7.00;;;4.30;;
4601;SDS011;2313;48.552;9.370;2023-02-15T17:16:32;11.10;;;5.90;;
4601;SDS011;2313;48.552;9.370;2023-02-15T17:19:08;7.33;;;5.27;;
4601;SDS011;2313;48.552;9.370;2023-02-15T17:21:45;8.97;;;5.10;;
4601;SDS011;2313;48.552;9.370;2023-02-15T17:27:27;12.70;;;4.60;;
4601;SDS011;2313;48.552;9.370;2023-02-15T17:30:00;6.50;;;4.13;;
4601;SDS011;2313;48.552;9.370;2023-02-15T17:32:28;6.57;;;4.10;;
4601;SDS011;2313;48.552;9.370;2023-02-15T17:42:55;13.33;;;5.07;;
4601;SDS011;2313;48.552;9.370;2023-02-15T17:45:21;13.00;;;4.90;;
4601;SDS011;2313;48.552;9.370;2023-02-15T17:47:49;5.73;;;3.97;;
4601;SDS011;2313;48.552;9.370;2023-02-15T17:50:25;7.10;;;4.00;;
4601;SDS011;2313;48.552;9.370;2023-02-15T17:52:52;8.30;;;3.70;;
4601;SDS011;2313;48.552;9.370;2023-02-15T17:55:21;4.30;;;2.97;;
4601;SDS011;2313;48.552;9.370;2023-02-15T17:58:00;5.47;;;3.07;;
4601;SDS011;2313;48.552;9.370;2023-02-15T18:00:27;12.70;;;3.73;;
4601;SDS011;2313;48.552;9.370;2023-02-15T18:03:13;5.30;;;3.27;;
4601;SDS011;2313;48.552;9.370;2023-02-15T18:05:57;4.40;;;3.30;;
4601;SDS011;2313;48.552;9.370;2023-02-15T18:08:42;7.67;;;2.67;;
4601;SDS011;2313;48.552;9.370;2023-02-15T18:11:26;3.43;;;2.63;;
4601;SDS011;2313;48.552;9.370;2023-02-15T18:13:57;4.87;;;3.73;;
4601;SDS011;2313;48.552;9.370;2023-02-15T18:16:26;3.70;;;2.90;;
4601;SDS011;2313;48.552;9.370;2023-02-15T18:18:54;6.80;;;3.10;;
4601;SDS011;2313;48.552;9.370;2023-02-15T18:21:22;4.37;;;3.13;;
4601;SDS011;2313;48.552;9.370;2023-02-15T18:23:48;5.10;;;2.53;;
4601;SDS011;2313;48.552;9.370;2023-02-15T18:26:18;9.23;;;2.63;;
4601;SDS011;2313;48.552;9.370;2023-02-15T18:28:45;4.90;;;4.13;;
4601;SDS011;2313;48.552;9.370;2023-02-15T18:31:11;10.73;;;3.63;;
4601;SDS011;2313;48.552;9.370;2023-02-15T18:33:38;6.33;;;4.00;;
4601;SDS011;2313;48.552;9.370;2023-02-15T18:36:13;5.97;;;4.33;;
4601;SDS011;2313;48.552;9.370;2023-02-15T18:38:42;5.80;;;4.10;;
4601;SDS011;2313;48.552;9.370;2023-02-15T18:41:09;7.00;;;4.00;;
4601;SDS011;2313;48.552;9.370;2023-02-15T18:43:40;13.07;;;4.50;;
4601;SDS011;2313;48.552;9.370;2023-02-15T18:46:07;7.77;;;5.50;;
4601;SDS011;2313;48.552;9.370;2023-02-15T18:48:32;13.00;;;5.80;;
4601;SDS011;2313;48.552;9.370;2023-02-15T18:50:58;7.93;;;5.43;;
4601;SDS011;2313;48.552;9.370;2023-02-15T18:53:24;11.73;;;5.90;;
4601;SDS011;2313;48.552;9.370;2023-02-15T18:55:49;9.23;;;6.57;;
4601;SDS011;2313;48.552;9.370;2023-02-15T18:58:16;9.70;;;7.27;;
4601;SDS011;2313;48.552;9.370;2023-02-15T19:00:44;20.23;;;12.40;;